createdAt,value
2018-01-04T00:00:27.647Z,11.53
2018-01-04T00:02:55.572Z,13.10
2018-01-04T00:05:23.630Z,16.57
2018-01-04T00:07:51.581Z,12.37
2018-01-04T00:10:20.243Z,17.43
2018-01-04T00:12:48.308Z,17.00
2018-01-04T00:15:16.244Z,16.63
2018-01-04T00:17:44.188Z,19.83
2018-01-04T00:20:12.998Z,19.23
2018-01-04T00:22:40.915Z,12.60
2018-01-04T00:25:08.861Z,10.47
2018-01-04T00:27:36.915Z,19.97
2018-01-04T00:30:04.830Z,17.47
2018-01-04T00:32:32.785Z,25.37
2018-01-04T00:35:00.976Z,19.10
2018-01-04T00:37:28.916Z,13.43
2018-01-04T00:39:56.836Z,16.13
2018-01-04T00:42:25.641Z,14.10
2018-01-04T00:44:53.574Z,17.53
2018-01-04T00:47:21.595Z,14.37
2018-01-04T00:49:49.648Z,12.27
2018-01-04T00:52:18.321Z,13.40
2018-01-04T00:54:46.993Z,19.87
2018-01-04T00:57:15.056Z,20.03
2018-01-04T00:59:42.989Z,18.90
2018-01-04T01:02:10.915Z,9.80
2018-01-04T01:04:39.729Z,18.90
2018-01-04T01:07:07.648Z,13.40
2018-01-04T01:09:35.577Z,16.40
2018-01-04T01:12:03.661Z,22.50
2018-01-04T01:14:31.584Z,13.80
2018-01-04T01:17:00.261Z,15.37
2018-01-04T01:19:28.329Z,12.63
2018-01-04T01:21:56.263Z,13.30
2018-01-04T01:24:24.201Z,13.20
2018-01-04T01:26:53.004Z,14.33
2018-01-04T01:29:20.932Z,19.27
2018-01-04T01:31:48.864Z,10.53
2018-01-04T01:34:16.922Z,10.13
2018-01-04T01:36:44.985Z,14.97
2018-01-04T01:39:12.917Z,13.13
2018-01-04T01:41:41.002Z,17.73
2018-01-04T01:44:09.677Z,10.30
2018-01-04T01:46:37.594Z,10.10
2018-01-04T01:49:16.304Z,14.93
2018-01-04T01:51:44.230Z,9.63
2018-01-04T01:54:12.176Z,6.40
2018-01-04T01:56:40.241Z,13.00
2018-01-04T01:59:08.177Z,11.70
2018-01-04T02:01:36.835Z,10.50
2018-01-04T02:04:04.905Z,7.53
2018-01-04T02:06:32.833Z,15.87
2018-01-04T02:09:00.751Z,12.67
2018-01-04T02:11:28.794Z,9.47
2018-01-04T02:13:56.728Z,12.37
2018-01-04T02:16:24.653Z,10.97
2018-01-04T02:19:04.237Z,12.70
2018-01-04T02:21:43.701Z,5.63
2018-01-04T02:24:23.167Z,14.47
2018-01-04T02:27:02.641Z,11.73
2018-01-04T02:29:43.100Z,7.40
2018-01-04T02:32:23.334Z,10.00
2018-01-04T02:35:02.980Z,11.47
2018-01-04T02:37:42.391Z,18.17
2018-01-04T02:40:22.057Z,13.90
2018-01-04T02:43:01.514Z,6.80
2018-01-04T02:45:53.703Z,8.33
2018-01-04T02:48:21.633Z,8.67
2018-01-04T02:50:50.296Z,12.13
2018-01-04T02:53:18.353Z,10.07
2018-01-04T02:55:46.285Z,10.30
2018-01-04T02:58:14.225Z,9.30
2018-01-04T03:00:42.357Z,10.37
2018-01-04T03:03:10.359Z,6.00
2018-01-04T03:05:38.287Z,18.93
2018-01-04T03:08:06.350Z,11.57
2018-01-04T03:10:34.276Z,15.13
2018-01-04T03:13:02.193Z,16.13
2018-01-04T03:15:30.248Z,14.73
2018-01-04T03:17:58.943Z,12.77
2018-01-04T03:20:26.873Z,17.67
2018-01-04T03:23:00.484Z,16.20
2018-01-04T03:25:34.017Z,26.70
2018-01-04T03:28:07.781Z,17.40
2018-01-04T03:30:41.357Z,18.87
2018-01-04T03:33:14.981Z,18.03
2018-01-04T03:35:58.388Z,13.07
2018-01-04T03:38:32.004Z,17.90
2018-01-04T03:41:05.501Z,21.20
2018-01-04T03:43:39.121Z,19.00
2018-01-04T03:46:12.637Z,11.33
2018-01-04T03:48:47.085Z,18.20
2018-01-04T03:51:20.591Z,15.97
2018-01-04T03:54:03.336Z,19.23
2018-01-04T03:56:36.963Z,30.20
2018-01-04T03:59:10.921Z,20.93
2018-01-04T04:01:44.414Z,16.83
2018-01-04T04:04:19.033Z,23.00
2018-01-04T04:06:53.526Z,19.73
2018-01-04T04:09:21.472Z,18.73
2018-01-04T04:11:49.405Z,12.23
2018-01-04T04:14:17.328Z,20.07
2018-01-04T04:16:45.375Z,10.93
2018-01-04T04:19:13.325Z,20.40
2018-01-04T04:21:41.261Z,13.47
2018-01-04T04:24:09.311Z,10.63
2018-01-04T04:26:37.235Z,19.00
2018-01-04T04:29:05.147Z,18.33
2018-01-04T04:31:33.205Z,15.37
2018-01-04T04:34:01.170Z,17.37
2018-01-04T04:36:29.096Z,18.57
2018-01-04T04:38:57.879Z,13.87
2018-01-04T04:41:26.550Z,17.03
2018-01-04T04:43:54.489Z,18.93
2018-01-04T04:46:22.548Z,14.67
2018-01-04T04:48:50.472Z,25.63
2018-01-04T04:51:18.401Z,25.07
2018-01-04T04:53:46.455Z,16.73
2018-01-04T04:56:14.381Z,17.13
2018-01-04T04:58:42.304Z,23.27
2018-01-04T05:01:10.364Z,19.20
2018-01-04T05:03:38.284Z,18.00
2018-01-04T05:06:06.357Z,17.67
2018-01-04T05:08:34.410Z,16.67
2018-01-04T05:11:02.345Z,16.93
2018-01-04T05:13:30.281Z,21.10
2018-01-04T05:15:59.059Z,60.23
2018-01-04T05:18:26.984Z,22.20
2018-01-04T05:20:54.925Z,15.70
2018-01-04T05:23:23.706Z,24.47
2018-01-04T05:25:52.368Z,16.23
2018-01-04T05:28:20.313Z,29.83
2018-01-04T05:30:48.360Z,22.93
2018-01-04T05:33:16.293Z,14.87
2018-01-04T05:35:44.229Z,19.53
2018-01-04T05:38:12.301Z,16.03
2018-01-04T05:40:40.235Z,19.43
2018-01-04T05:43:08.174Z,15.93
2018-01-04T05:45:36.234Z,13.10
2018-01-04T05:48:04.148Z,16.63
2018-01-04T05:50:32.085Z,26.23
2018-01-04T05:53:00.144Z,23.93
2018-01-04T05:55:28.082Z,18.67
2018-01-04T05:57:56.016Z,19.43
2018-01-04T06:00:24.816Z,21.83
2018-01-04T06:02:53.478Z,17.23
2018-01-04T06:05:21.406Z,39.80
2018-01-04T06:07:49.613Z,23.33
2018-01-04T06:10:17.548Z,22.50
2018-01-04T06:12:45.493Z,24.13
2018-01-04T06:15:13.542Z,26.03
2018-01-04T06:17:42.208Z,13.77
2018-01-04T06:20:10.135Z,13.33
2018-01-04T06:22:38.184Z,29.37
2018-01-04T06:25:06.869Z,15.53
2018-01-04T06:27:35.549Z,25.73
2018-01-04T06:30:04.370Z,24.83
2018-01-04T06:32:32.318Z,19.53
2018-01-04T06:35:00.991Z,21.27
2018-01-04T06:37:29.806Z,39.27
2018-01-04T06:39:57.719Z,22.00
2018-01-04T06:42:26.604Z,22.30
2018-01-04T06:44:54.666Z,20.70
2018-01-04T06:47:22.585Z,28.53
2018-01-04T06:49:51.254Z,22.77
2018-01-04T06:52:19.336Z,29.27
2018-01-04T06:54:47.275Z,26.27
2018-01-04T06:57:15.196Z,17.40
2018-01-04T06:59:43.993Z,19.93
2018-01-04T07:02:12.660Z,17.27
2018-01-04T07:04:41.337Z,18.80
2018-01-04T07:07:09.413Z,24.43
2018-01-04T07:09:37.476Z,21.60
2018-01-04T07:12:05.434Z,23.10
2018-01-04T07:14:33.481Z,23.50
2018-01-04T07:17:01.524Z,18.57
2018-01-04T07:19:30.197Z,19.10
2018-01-04T07:21:58.992Z,26.67
2018-01-04T07:24:27.669Z,21.33
2018-01-04T07:26:56.349Z,19.90
2018-01-04T07:29:25.165Z,29.80
2018-01-04T07:31:53.844Z,16.10
2018-01-04T07:34:22.509Z,18.57
2018-01-04T07:36:50.577Z,22.60
2018-01-04T07:39:18.492Z,25.63
2018-01-04T07:41:46.465Z,27.23
2018-01-04T07:44:14.521Z,19.27
2018-01-04T07:46:43.204Z,17.23
2018-01-04T07:49:11.880Z,27.00
2018-01-04T07:51:40.680Z,27.07
2018-01-04T07:54:09.373Z,16.80
2018-01-04T07:56:38.061Z,18.67
2018-01-04T07:59:06.874Z,19.30
2018-01-04T08:01:34.805Z,18.50
2018-01-04T08:04:03.473Z,19.63
2018-01-04T08:06:31.516Z,21.90
2018-01-04T08:08:59.440Z,22.97
2018-01-04T08:11:28.258Z,27.93
2018-01-04T08:13:56.303Z,29.17
2018-01-04T08:16:24.981Z,29.10
2018-01-04T08:18:53.664Z,23.97
2018-01-04T08:21:21.725Z,18.80
2018-01-04T08:23:49.664Z,32.10
2018-01-04T08:26:17.607Z,18.23
2018-01-04T08:28:45.658Z,21.67
2018-01-04T08:31:14.319Z,26.50
2018-01-04T08:33:42.260Z,26.87
2018-01-04T08:36:10.361Z,25.40
2018-01-04T08:38:38.283Z,23.53
2018-01-04T08:41:06.206Z,18.93
2018-01-04T08:43:34.256Z,25.03
2018-01-04T08:46:02.220Z,16.67
2018-01-04T08:48:30.148Z,21.77
2018-01-04T08:50:58.936Z,16.30
2018-01-04T08:53:27.597Z,17.53
2018-01-04T08:55:55.526Z,21.10
2018-01-04T08:58:23.573Z,20.73
2018-01-04T09:00:52.249Z,24.10
2018-01-04T09:03:20.920Z,27.63
2018-01-04T09:05:48.994Z,22.63
2018-01-04T09:08:16.916Z,25.43
2018-01-04T09:10:44.853Z,27.77
2018-01-04T09:13:13.774Z,26.03
2018-01-04T09:15:41.717Z,17.87
2018-01-04T09:18:10.407Z,24.20
2018-01-04T09:20:39.193Z,26.40
2018-01-04T09:23:07.881Z,24.23
2018-01-04T09:25:36.550Z,24.50
2018-01-04T09:28:04.626Z,27.67
2018-01-04T09:30:33.301Z,24.83
2018-01-04T09:33:01.421Z,18.97
2018-01-04T09:35:29.501Z,25.03
2018-01-04T09:37:57.424Z,20.13
2018-01-04T09:40:25.355Z,18.57
2018-01-04T09:42:54.305Z,17.00
2018-01-04T09:45:22.982Z,18.93
2018-01-04T09:47:51.661Z,23.40
2018-01-04T09:50:19.721Z,17.33
2018-01-04T09:52:47.654Z,22.10
2018-01-04T09:55:16.752Z,22.10
2018-01-04T09:57:44.799Z,22.90
2018-01-04T10:00:13.476Z,23.83
2018-01-04T10:02:42.166Z,15.20
2018-01-04T10:05:10.976Z,28.80
2018-01-04T10:07:38.904Z,19.10
2018-01-04T10:10:06.857Z,28.43
2018-01-04T10:12:34.918Z,22.43
2018-01-04T10:15:02.981Z,17.53
2018-01-04T10:17:30.909Z,21.97
2018-01-04T10:19:59.716Z,19.23
2018-01-04T10:22:27.666Z,24.47
2018-01-04T10:24:56.342Z,23.83
2018-01-04T10:27:24.404Z,20.60
2018-01-04T10:29:52.336Z,24.37
2018-01-04T10:32:20.252Z,19.07
2018-01-04T10:34:48.314Z,23.83
2018-01-04T10:37:16.257Z,25.87
2018-01-04T10:39:44.179Z,17.73
2018-01-04T10:42:12.960Z,18.80
2018-01-04T10:44:41.637Z,19.27
2018-01-04T10:47:09.564Z,19.03
2018-01-04T10:49:37.608Z,20.20
2018-01-04T10:52:06.296Z,19.30
2018-01-04T10:54:34.230Z,18.20
2018-01-04T10:57:02.287Z,19.33
2018-01-04T10:59:30.235Z,18.07
2018-01-04T11:01:58.162Z,20.83
2018-01-04T11:04:26.962Z,15.60
2018-01-04T11:06:55.662Z,11.23
2018-01-04T11:09:23.594Z,18.20
2018-01-04T11:11:51.644Z,17.17
2018-01-04T11:14:19.590Z,21.27
2018-01-04T11:16:47.776Z,18.20
2018-01-04T11:19:15.835Z,21.07
2018-01-04T11:21:43.758Z,23.70
2018-01-04T11:24:11.681Z,14.17
2018-01-04T11:26:39.728Z,24.70
2018-01-04T11:29:07.664Z,16.43
2018-01-04T11:31:35.592Z,15.83
2018-01-04T11:34:03.688Z,30.30
2018-01-04T11:36:31.623Z,21.03
2018-01-04T11:38:59.561Z,16.23
2018-01-04T11:41:28.354Z,17.37
2018-01-04T11:43:57.012Z,13.90
2018-01-04T11:46:24.946Z,15.03
2018-01-04T11:48:53.020Z,18.30
2018-01-04T11:51:20.948Z,16.83
2018-01-04T11:53:49.623Z,19.40
2018-01-04T11:56:17.702Z,28.70
2018-01-04T11:58:46.386Z,23.00
2018-01-04T12:01:15.219Z,25.70
2018-01-04T12:03:43.269Z,22.83
2018-01-04T12:06:11.945Z,18.40
2018-01-04T12:08:40.612Z,19.27
2018-01-04T12:11:08.684Z,15.20
2018-01-04T12:13:36.614Z,22.87
2018-01-04T12:16:04.674Z,18.13
2018-01-04T12:18:32.868Z,20.63
2018-01-04T12:21:00.784Z,14.87
2018-01-04T12:23:28.713Z,24.50
2018-01-04T12:25:56.777Z,11.70
2018-01-04T12:28:24.712Z,18.90
2018-01-04T12:30:53.390Z,11.37
2018-01-04T12:33:22.188Z,19.00
2018-01-04T12:35:50.848Z,14.27
2018-01-04T12:38:18.774Z,18.07
2018-01-04T12:40:46.820Z,15.80
2018-01-04T12:43:15.479Z,13.80
2018-01-04T12:45:43.420Z,14.13
2018-01-04T12:48:11.481Z,17.53
2018-01-04T12:50:39.408Z,10.83
2018-01-04T12:53:08.074Z,15.03
2018-01-04T12:55:36.112Z,14.23
2018-01-04T12:58:04.052Z,23.40
2018-01-04T13:00:32.724Z,18.40
2018-01-04T13:03:01.512Z,16.73
2018-01-04T13:05:30.173Z,19.27
2018-01-04T13:07:58.117Z,14.23
2018-01-04T13:10:26.189Z,10.17
2018-01-04T13:12:54.126Z,18.40
2018-01-04T13:15:22.809Z,19.20
2018-01-04T13:17:51.596Z,11.33
2018-01-04T13:20:20.396Z,12.73
2018-01-04T13:22:49.064Z,13.33
2018-01-04T13:25:17.836Z,26.07
2018-01-04T13:27:45.769Z,18.30
2018-01-04T13:30:13.709Z,18.67
2018-01-04T13:32:41.769Z,13.30
2018-01-04T13:35:10.449Z,21.40
2018-01-04T13:37:38.389Z,24.20
2018-01-04T13:40:06.439Z,21.13
2018-01-04T13:42:34.403Z,16.80
2018-01-04T13:45:02.358Z,17.47
2018-01-04T13:47:30.409Z,17.43
2018-01-04T13:49:59.090Z,20.77
2018-01-04T13:52:27.761Z,20.93
2018-01-04T13:54:55.949Z,14.07
2018-01-04T13:57:23.879Z,13.37
2018-01-04T13:59:51.847Z,19.20
2018-01-04T14:02:19.920Z,15.50
2018-01-04T14:04:47.848Z,14.07
2018-01-04T14:07:16.521Z,17.30
2018-01-04T14:09:45.329Z,10.60
2018-01-04T14:12:14.010Z,14.53
2018-01-04T14:14:42.684Z,18.70
2018-01-04T14:17:10.745Z,13.10
2018-01-04T14:19:38.688Z,23.63
2018-01-04T14:22:06.768Z,11.43
2018-01-04T14:24:34.828Z,19.47
2018-01-04T14:27:02.748Z,13.27
2018-01-04T14:29:31.427Z,15.70
2018-01-04T14:32:00.236Z,13.47
2018-01-04T14:34:28.903Z,14.80
2018-01-04T14:36:56.834Z,17.40
2018-01-04T14:39:25.035Z,15.00
2018-01-04T14:41:53.104Z,16.47
2018-01-04T14:44:21.050Z,20.57
2018-01-04T14:46:49.113Z,19.13
2018-01-04T14:49:17.047Z,13.13
2018-01-04T14:51:45.722Z,17.80
2018-01-04T14:54:13.780Z,22.43
2018-01-04T14:56:41.721Z,17.30
2018-01-04T14:59:09.653Z,29.77
2018-01-04T15:01:38.442Z,18.13
2018-01-04T15:04:07.110Z,15.37
2018-01-04T15:06:35.064Z,21.20
2018-01-04T15:09:03.131Z,17.30
2018-01-04T15:11:31.055Z,13.80
2018-01-04T15:13:58.992Z,16.50
2018-01-04T15:16:27.048Z,11.80
2018-01-04T15:18:54.986Z,20.90
2018-01-04T15:21:22.908Z,23.30
2018-01-04T15:23:51.855Z,16.90
2018-01-04T15:26:19.789Z,20.07
2018-01-04T15:28:48.458Z,16.03
2018-01-04T15:31:17.264Z,22.17
2018-01-04T15:33:45.937Z,23.57
2018-01-04T15:36:14.604Z,23.33
2018-01-04T15:38:42.660Z,24.03
2018-01-04T15:41:10.576Z,18.33
2018-01-04T15:43:39.269Z,13.77
2018-01-04T15:46:08.057Z,13.73
2018-01-04T15:48:36.753Z,25.23
2018-01-04T15:51:04.698Z,15.43
2018-01-04T15:53:33.512Z,18.13
2018-01-04T15:56:01.440Z,16.50
2018-01-04T15:58:29.386Z,11.63
2018-01-04T16:00:57.442Z,23.73
2018-01-04T16:03:25.364Z,14.87
2018-01-04T16:05:53.287Z,16.43
2018-01-04T16:08:21.345Z,15.27
2018-01-04T16:10:49.272Z,19.90
2018-01-04T16:13:17.204Z,22.03
2018-01-04T16:15:45.281Z,20.07
2018-01-04T16:18:13.244Z,30.37
2018-01-04T16:20:41.185Z,17.10
2018-01-04T16:23:09.992Z,21.80
2018-01-04T16:25:38.060Z,23.77
2018-01-04T16:28:05.980Z,22.80
2018-01-04T16:30:34.043Z,15.33
2018-01-04T16:33:01.968Z,25.40
2018-01-04T16:35:29.896Z,23.40
2018-01-04T16:37:57.943Z,24.23
2018-01-04T16:40:25.872Z,18.33
2018-01-04T16:42:53.791Z,25.70
2018-01-04T16:45:21.851Z,25.57
2018-01-04T16:47:49.779Z,34.30
2018-01-04T16:50:18.515Z,29.80
2018-01-04T16:52:46.573Z,22.63
2018-01-04T16:55:14.532Z,38.77
2018-01-04T16:57:42.448Z,26.33
2018-01-04T17:00:10.528Z,35.63
2018-01-04T17:02:38.465Z,27.53
2018-01-04T17:05:06.410Z,28.63
2018-01-04T17:07:34.460Z,35.27
2018-01-04T17:10:03.149Z,26.70
2018-01-04T17:12:31.833Z,26.37
2018-01-04T17:15:00.648Z,33.23
2018-01-04T17:17:28.574Z,49.87
2018-01-04T17:19:56.516Z,30.00
2018-01-04T17:22:24.576Z,46.73
2018-01-04T17:24:52.508Z,54.80
2018-01-04T17:27:21.318Z,40.73
2018-01-04T17:29:49.396Z,35.90
2018-01-04T17:32:17.340Z,31.43
2018-01-04T17:34:46.025Z,42.30
2018-01-04T17:37:14.821Z,29.83
2018-01-04T17:39:43.614Z,29.30
2018-01-04T17:42:12.272Z,32.47
2018-01-04T17:44:40.341Z,28.37
2018-01-04T17:47:08.293Z,37.37
2018-01-04T17:49:36.242Z,53.07
2018-01-04T17:52:04.342Z,31.37
2018-01-04T17:54:32.318Z,36.63
2018-01-04T17:57:00.236Z,31.73
2018-01-04T17:59:28.292Z,32.77
2018-01-04T18:01:56.974Z,47.07
2018-01-04T18:04:25.635Z,38.97
2018-01-04T18:06:53.702Z,29.27
2018-01-04T18:09:21.637Z,41.47
2018-01-04T18:11:49.825Z,28.47
2018-01-04T18:14:17.892Z,32.43
2018-01-04T18:16:45.828Z,34.93
2018-01-04T18:19:14.510Z,38.17
2018-01-04T18:21:43.373Z,32.77
2018-01-04T18:24:11.305Z,31.00
2018-01-04T18:26:39.238Z,40.70
2018-01-04T18:29:08.180Z,35.03
2018-01-04T18:31:36.138Z,28.53
2018-01-04T18:34:04.214Z,39.40
2018-01-04T18:36:32.266Z,29.53
2018-01-04T18:39:00.192Z,31.43
2018-01-04T18:41:28.119Z,38.43
2018-01-04T18:43:56.322Z,34.30
2018-01-04T18:46:24.253Z,31.87
2018-01-04T18:48:52.198Z,37.20
2018-01-04T18:51:21.023Z,33.47
2018-01-04T18:53:48.958Z,43.40
2018-01-04T18:56:17.624Z,41.23
2018-01-04T18:58:45.674Z,35.07
2018-01-04T19:01:13.618Z,38.33
2018-01-04T19:03:41.548Z,42.73
2018-01-04T19:06:09.592Z,27.10
2018-01-04T19:08:37.520Z,20.80
2018-01-04T19:11:05.456Z,19.77
2018-01-04T19:13:33.500Z,17.17
2018-01-04T19:16:01.426Z,22.33
2018-01-04T19:18:30.097Z,28.17
2018-01-04T19:20:58.876Z,21.23
2018-01-04T19:23:26.815Z,26.07
2018-01-04T19:25:54.756Z,21.43
2018-01-04T19:28:22.829Z,16.37
2018-01-04T19:30:50.910Z,20.20
2018-01-04T19:33:18.876Z,20.43
2018-01-04T19:35:46.946Z,20.37
2018-01-04T19:38:14.869Z,27.10
2018-01-04T19:40:42.800Z,25.37
2018-01-04T19:43:10.863Z,20.90
2018-01-04T19:45:38.819Z,15.53
2018-01-04T19:48:06.748Z,18.33
2018-01-04T19:50:34.797Z,18.77
2018-01-04T19:53:02.739Z,20.70
2018-01-04T19:55:30.673Z,25.37
2018-01-04T19:57:59.481Z,18.53
2018-01-04T20:00:28.175Z,20.60
2018-01-04T20:02:56.853Z,21.33
2018-01-04T20:05:25.642Z,24.50
2018-01-04T20:07:54.478Z,17.23
2018-01-04T20:10:22.556Z,16.80
2018-01-04T20:12:50.616Z,16.70
2018-01-04T20:15:18.664Z,15.77
2018-01-04T20:17:46.580Z,18.33
2018-01-04T20:20:14.637Z,22.40
2018-01-04T20:22:42.585Z,20.40
2018-01-04T20:25:10.511Z,20.77
2018-01-04T20:27:38.568Z,20.87
2018-01-04T20:30:06.508Z,16.30
2018-01-04T20:32:34.585Z,21.47
2018-01-04T20:35:02.647Z,17.33
2018-01-04T20:37:30.578Z,27.73
2018-01-04T20:39:59.288Z,20.97
2018-01-04T20:42:27.327Z,20.90
2018-01-04T20:44:55.256Z,17.77
2018-01-04T20:47:23.202Z,23.53
2018-01-04T20:49:51.236Z,29.30
2018-01-04T20:52:19.161Z,27.13
2018-01-04T20:54:47.097Z,28.47
2018-01-04T20:57:15.900Z,44.10
2018-01-04T20:59:43.824Z,23.10
2018-01-04T21:02:12.475Z,22.33
2018-01-04T21:04:40.528Z,22.23
2018-01-04T21:07:08.457Z,25.33
2018-01-04T21:09:36.372Z,25.40
2018-01-04T21:12:04.418Z,18.50
2018-01-04T21:14:33.084Z,24.80
2018-01-04T21:17:01.020Z,22.03
2018-01-04T21:19:29.084Z,29.73
2018-01-04T21:21:57.022Z,23.97
2018-01-04T21:24:25.696Z,24.97
2018-01-04T21:26:53.754Z,19.57
2018-01-04T21:29:21.684Z,29.73
2018-01-04T21:31:49.630Z,29.83
2018-01-04T21:34:18.570Z,31.93
2018-01-04T21:36:46.500Z,27.87
2018-01-04T21:39:14.434Z,25.73
2018-01-04T21:41:42.505Z,28.87
2018-01-04T21:44:10.438Z,24.87
2018-01-04T21:46:38.369Z,21.80
2018-01-04T21:49:07.160Z,27.33
2018-01-04T21:51:35.843Z,25.17
2018-01-04T21:54:04.497Z,30.00
2018-01-04T21:56:32.539Z,44.33
2018-01-04T21:59:00.465Z,32.07
2018-01-04T22:01:29.142Z,31.90
2018-01-04T22:03:57.190Z,24.57
2018-01-04T22:06:25.216Z,24.97
2018-01-04T22:08:53.150Z,29.57
2018-01-04T22:11:21.217Z,25.53
2018-01-04T22:13:49.188Z,24.50
2018-01-04T22:16:17.113Z,22.13
2018-01-04T22:18:45.177Z,25.97
2018-01-04T22:21:13.092Z,27.30
2018-01-04T22:23:41.016Z,22.73
2018-01-04T22:26:09.060Z,19.57
2018-01-04T22:28:37.740Z,27.70
2018-01-04T22:31:05.663Z,21.03
2018-01-04T22:33:33.984Z,19.67
2018-01-04T22:36:02.049Z,21.03
2018-01-04T22:38:29.989Z,27.37
2018-01-04T22:40:58.065Z,29.43
2018-01-04T22:43:26.121Z,26.63
2018-01-04T22:45:54.069Z,16.87
2018-01-04T22:48:22.877Z,19.73
2018-01-04T22:50:50.812Z,20.80
2018-01-04T22:53:19.728Z,19.27
2018-01-04T22:55:47.776Z,21.33
2018-01-04T22:58:16.467Z,20.33
2018-01-04T23:00:49.213Z,23.40
2018-01-04T23:03:17.145Z,21.53
2018-01-04T23:05:45.081Z,22.60
2018-01-04T23:08:13.890Z,19.00
2018-01-04T23:10:42.547Z,18.07
2018-01-04T23:13:10.486Z,20.20
2018-01-04T23:15:38.528Z,18.13
2018-01-04T23:18:06.465Z,18.20
2018-01-04T23:20:34.397Z,17.47
2018-01-04T23:23:02.443Z,17.03
2018-01-04T23:25:30.402Z,12.67
2018-01-04T23:27:59.081Z,18.33
2018-01-04T23:30:28.142Z,20.37
2018-01-04T23:32:56.065Z,13.80
2018-01-04T23:35:23.984Z,14.13
2018-01-04T23:37:52.178Z,17.13
2018-01-04T23:40:20.104Z,23.83
2018-01-04T23:42:48.020Z,22.13
2018-01-04T23:45:16.217Z,16.73
2018-01-04T23:47:45.135Z,17.90
2018-01-04T23:50:13.210Z,15.33
2018-01-04T23:52:41.276Z,16.00
2018-01-04T23:55:09.193Z,14.87
2018-01-04T23:57:37.113Z,18.37
